Time,TemperatureF,DewpointF,PressureIn,WindDirection,WindDirectionDegrees,WindSpeedMPH,WindSpeedGustMPH,Humidity,HourlyPrecipIn,Conditions,Clouds,dailyrainin,SoftwareType,DateUTC
2013-02-15 00:01:00,19.7,7.7,30.51,ENE,64,1.0,1.0,59,0.00,,,0.00,Wunderground PWS Mod,2013-02-15 07:01:00,
2013-02-15 00:06:00,19.1,7.5,30.51,ENE,68,1.0,2.0,60,0.00,,,0.00,Wunderground PWS Mod,2013-02-15 07:06:00,
2013-02-15 00:12:00,18.6,7.7,30.51,ENE,57,1.0,2.0,62,0.00,,,0.00,Wunderground PWS Mod,2013-02-15 07:12:00,
2013-02-15 00:18:00,18.8,8.3,30.51,NE,45,1.0,2.0,63,0.00,,,0.00,Wunderground PWS Mod,2013-02-15 07:18:00,
2013-02-15 00:24:00,19.4,8.5,30.51,NE,46,0.0,2.0,62,0.00,,,0.00,Wunderground PWS Mod,2013-02-15 07:24:00,
2013-02-15 00:29:00,19.2,7.6,30.51,NE,44,0.0,1.0,60,0.00,,,0.00,Wunderground PWS Mod,2013-02-15 07:29:00,
2013-02-15 00:35:00,18.6,7.0,30.51,NNE,23,1.0,1.0,60,0.00,,,0.00,Wunderground PWS Mod,2013-02-15 07:35:00,
2013-02-15 00:40:00,18.0,6.8,30.51,NNE,25,1.0,1.0,61,0.00,,,0.00,Wunderground PWS Mod,2013-02-15 07:40:00,
2013-02-15 00:45:00,17.5,7.0,30.51,NNE,26,1.0,1.0,63,0.00,,,0.00,Wunderground PWS Mod,2013-02-15 07:45:00,
2013-02-15 00:50:00,17.5,7.4,30.52,NNE,25,1.0,1.0,64,0.00,,,0.00,Wunderground PWS Mod,2013-02-15 07:50:00,
2013-02-15 00:56:00,17.8,7.7,30.52,NE,34,2.0,2.0,64,0.00,,,0.00,Wunderground PWS Mod,2013-02-15 07:56:00,
2013-02-15 01:02:00,18.6,8.1,30.52,NNE,32,2.0,2.0,63,0.00,,,0.00,Wunderground PWS Mod,2013-02-15 08:02:00,
2013-02-15 01:07:00,18.8,7.6,30.52,NE,54,1.0,2.0,61,0.00,,,0.00,Wunderground PWS Mod,2013-02-15 08:07:00,
2013-02-15 01:12:00,18.4,7.5,30.52,NE,37,1.0,1.0,62,0.00,,,0.00,Wunderground PWS Mod,2013-02-15 08:12:00,
2013-02-15 01:18:00,18.4,7.5,30.52,NNE,23,1.0,2.0,62,0.00,,,0.00,Wunderground PWS Mod,2013-02-15 08:18:00,
2013-02-15 01:23:00,18.4,7.5,30.51,NE,47,1.0,1.0,62,0.00,,,0.00,Wunderground PWS Mod,2013-02-15 08:23:00,
2013-02-15 01:28:00,18.4,7.5,30.51,NE,45,1.0,1.0,62,0.00,,,0.00,Wunderground PWS Mod,2013-02-15 08:28:00,
2013-02-15 01:34:00,18.1,7.3,30.53,North,349,1.0,1.0,62,0.00,,,0.00,Wunderground PWS Mod,2013-02-15 08:34:00,
2013-02-15 01:40:00,18.6,7.4,30.53,NE,41,0.0,0.0,61,0.00,,,0.00,Wunderground PWS Mod,2013-02-15 08:40:00,
2013-02-15 01:45:00,17.8,5.9,30.53,NE,52,1.0,1.0,59,0.00,,,0.00,Wunderground PWS Mod,2013-02-15 08:45:00,
2013-02-15 01:50:00,16.9,5.8,30.53,NE,47,1.0,1.0,61,0.00,,,0.00,Wunderground PWS Mod,2013-02-15 08:50:00,
2013-02-15 01:55:00,16.5,6.1,30.53,NE,47,0.0,1.0,63,0.00,,,0.00,Wunderground PWS Mod,2013-02-15 08:55:00,
2013-02-15 02:01:00,16.5,6.4,30.53,NE,47,1.0,1.0,64,0.00,,,0.00,Wunderground PWS Mod,2013-02-15 09:01:00,
2013-02-15 02:06:00,16.7,6.6,30.53,ENE,60,1.0,1.0,64,0.00,,,0.00,Wunderground PWS Mod,2013-02-15 09:06:00,
2013-02-15 02:11:00,17.0,7.3,30.53,NE,48,2.0,2.0,65,0.00,,,0.00,Wunderground PWS Mod,2013-02-15 09:11:00,
2013-02-15 02:16:00,18.0,8.2,30.53,NE,52,1.0,2.0,65,0.00,,,0.00,Wunderground PWS Mod,2013-02-15 09:16:00,
2013-02-15 02:21:00,18.3,8.1,30.53,NE,51,1.0,1.0,64,0.00,,,0.00,Wunderground PWS Mod,2013-02-15 09:21:00,
2013-02-15 02:26:00,18.1,8.0,30.53,NE,50,1.0,2.0,64,0.00,,,0.00,Wunderground PWS Mod,2013-02-15 09:26:00,
2013-02-15 02:31:00,18.1,8.0,30.53,NE,37,1.0,2.0,64,0.00,,,0.00,Wunderground PWS Mod,2013-02-15 09:31:00,
2013-02-15 02:36:00,17.8,7.7,30.53,NE,44,1.0,2.0,64,0.00,,,0.00,Wunderground PWS Mod,2013-02-15 09:36:00,
2013-02-15 02:41:00,18.1,8.0,30.53,NE,48,1.0,2.0,64,0.00,,,0.00,Wunderground PWS Mod,2013-02-15 09:41:00,
2013-02-15 02:46:00,18.1,8.0,30.53,NE,46,0.0,2.0,64,0.00,,,0.00,Wunderground PWS Mod,2013-02-15 09:46:00,
2013-02-15 02:51:00,18.4,8.2,30.53,NE,44,2.0,4.0,64,0.00,,,0.00,Wunderground PWS Mod,2013-02-15 09:51:00,
2013-02-15 02:56:00,18.3,7.4,30.53,ENE,71,3.0,3.0,62,0.00,,,0.00,Wunderground PWS Mod,2013-02-15 09:56:00,
2013-02-15 03:01:00,17.8,8.0,30.53,NNE,33,2.0,2.0,65,0.00,,,0.00,Wunderground PWS Mod,2013-02-15 10:01:00,
2013-02-15 03:06:00,17.7,7.9,30.53,NE,39,3.0,4.0,65,0.00,,,0.00,Wunderground PWS Mod,2013-02-15 10:06:00,
2013-02-15 03:11:00,18.0,7.9,30.53,NE,49,1.0,3.0,64,0.00,,,0.00,Wunderground PWS Mod,2013-02-15 10:11:00,
2013-02-15 03:16:00,18.4,8.2,30.53,NE,39,1.0,2.0,64,0.00,,,0.00,Wunderground PWS Mod,2013-02-15 10:16:00,
2013-02-15 03:21:00,18.8,8.6,30.53,NNE,32,3.0,3.0,64,0.00,,,0.00,Wunderground PWS Mod,2013-02-15 10:21:00,
2013-02-15 03:26:00,19.2,9.0,30.53,NE,49,3.0,4.0,64,0.00,,,0.00,Wunderground PWS Mod,2013-02-15 10:26:00,
2013-02-15 03:31:00,19.4,9.2,30.51,NE,41,2.0,3.0,64,0.00,,,0.00,Wunderground PWS Mod,2013-02-15 10:31:00,
2013-02-15 03:36:00,19.1,9.3,30.51,NNE,28,2.0,2.0,65,0.00,,,0.00,Wunderground PWS Mod,2013-02-15 10:36:00,
2013-02-15 03:41:00,18.9,9.4,30.51,NNE,30,3.0,3.0,66,0.00,,,0.00,Wunderground PWS Mod,2013-02-15 10:41:00,
2013-02-15 03:46:00,18.8,10.0,30.51,NNE,32,1.0,2.0,68,0.00,,,0.00,Wunderground PWS Mod,2013-02-15 10:46:00,
2013-02-15 03:51:00,18.8,10.0,30.51,NNE,32,0.0,1.0,68,0.00,,,0.00,Wunderground PWS Mod,2013-02-15 10:51:00,
2013-02-15 03:56:00,18.4,9.6,30.51,NE,45,0.0,1.0,68,0.00,,,0.00,Wunderground PWS Mod,2013-02-15 10:56:00,
2013-02-15 04:01:00,18.0,9.5,30.53,NE,46,1.0,2.0,69,0.00,,,0.00,Wunderground PWS Mod,2013-02-15 11:01:00,
2013-02-15 04:06:00,18.1,10.0,30.53,NE,53,0.0,2.0,70,0.00,,,0.00,Wunderground PWS Mod,2013-02-15 11:06:00,
2013-02-15 04:12:00,18.6,10.4,30.53,NE,53,0.0,1.0,70,0.00,,,0.00,Wunderground PWS Mod,2013-02-15 11:12:00,
2013-02-15 04:17:00,18.9,10.4,30.53,NE,53,0.0,1.0,69,0.00,,,0.00,Wunderground PWS Mod,2013-02-15 11:17:00,
2013-02-15 04:22:00,18.6,10.1,30.53,NE,53,1.0,2.0,69,0.00,,,0.00,Wunderground PWS Mod,2013-02-15 11:22:00,
2013-02-15 04:27:00,18.1,9.6,30.53,NE,51,1.0,2.0,69,0.00,,,0.00,Wunderground PWS Mod,2013-02-15 11:27:00,
2013-02-15 04:32:00,17.7,9.2,30.55,NE,51,1.0,1.0,69,0.00,,,0.00,Wunderground PWS Mod,2013-02-15 11:32:00,
2013-02-15 04:37:00,17.2,8.8,30.55,NE,49,1.0,2.0,69,0.00,,,0.00,Wunderground PWS Mod,2013-02-15 11:37:00,
2013-02-15 04:42:00,16.9,8.8,30.55,NE,44,1.0,2.0,70,0.00,,,0.00,Wunderground PWS Mod,2013-02-15 11:42:00,
2013-02-15 04:47:00,16.9,9.1,30.55,NE,44,1.0,1.0,71,0.00,,,0.00,Wunderground PWS Mod,2013-02-15 11:47:00,
2013-02-15 04:52:00,16.7,8.6,30.55,NNE,30,2.0,2.0,70,0.00,,,0.00,Wunderground PWS Mod,2013-02-15 11:52:00,
2013-02-15 04:57:00,16.4,8.6,30.55,NNE,32,0.0,2.0,71,0.00,,,0.00,Wunderground PWS Mod,2013-02-15 11:57:00,
2013-02-15 05:02:00,16.7,9.2,30.55,NNE,32,0.0,1.0,72,0.00,,,0.00,Wunderground PWS Mod,2013-02-15 12:02:00,
2013-02-15 05:07:00,17.5,10.0,30.55,NNE,32,0.0,2.0,72,0.00,,,0.00,Wunderground PWS Mod,2013-02-15 12:07:00,
2013-02-15 05:12:00,18.6,10.4,30.55,NNE,32,0.0,2.0,70,0.00,,,0.00,Wunderground PWS Mod,2013-02-15 12:12:00,
2013-02-15 05:17:00,18.6,9.5,30.56,NNE,32,2.0,2.0,67,0.00,,,0.00,Wunderground PWS Mod,2013-02-15 12:17:00,
2013-02-15 05:22:00,17.3,7.9,30.56,NNE,30,1.0,2.0,66,0.00,,,0.00,Wunderground PWS Mod,2013-02-15 12:22:00,
2013-02-15 05:27:00,16.5,7.4,30.56,NNE,30,0.0,2.0,67,0.00,,,0.00,Wunderground PWS Mod,2013-02-15 12:27:00,
2013-02-15 05:32:00,15.6,6.9,30.60,NE,47,0.0,1.0,68,0.00,,,0.00,Wunderground PWS Mod,2013-02-15 12:32:00,
2013-02-15 05:37:00,15.6,7.2,30.60,NE,46,1.0,1.0,69,0.00,,,0.00,Wunderground PWS Mod,2013-02-15 12:37:00,
2013-02-15 05:42:00,15.4,7.0,30.60,NE,42,1.0,2.0,69,0.00,,,0.00,Wunderground PWS Mod,2013-02-15 12:42:00,
2013-02-15 05:47:00,14.8,6.8,30.59,ENE,58,1.0,3.0,70,0.00,,,0.00,Wunderground PWS Mod,2013-02-15 12:47:00,
2013-02-15 05:52:00,15.7,8.6,30.59,NE,53,2.0,2.0,73,0.00,,,0.00,Wunderground PWS Mod,2013-02-15 12:52:00,
2013-02-15 05:57:00,16.9,9.7,30.59,NE,44,3.0,3.0,73,0.00,,,0.00,Wunderground PWS Mod,2013-02-15 12:57:00,
2013-02-15 06:02:00,17.5,10.0,30.58,NE,53,0.0,2.0,72,0.00,,,0.00,Wunderground PWS Mod,2013-02-15 13:02:00,
2013-02-15 06:07:00,17.5,9.7,30.58,NE,54,1.0,1.0,71,0.00,,,0.00,Wunderground PWS Mod,2013-02-15 13:07:00,
2013-02-15 06:12:00,17.5,9.7,30.58,NE,53,0.0,2.0,71,0.00,,,0.00,Wunderground PWS Mod,2013-02-15 13:12:00,
2013-02-15 06:17:00,17.7,9.9,30.62,NE,53,0.0,1.0,71,0.00,,,0.00,Wunderground PWS Mod,2013-02-15 13:17:00,
2013-02-15 06:22:00,17.8,10.0,30.62,NE,53,0.0,0.0,71,0.00,,,0.00,Wunderground PWS Mod,2013-02-15 13:22:00,
2013-02-15 06:27:00,17.8,10.0,30.62,NE,54,0.0,0.0,71,0.00,,,0.00,Wunderground PWS Mod,2013-02-15 13:27:00,
2013-02-15 06:29:00,17.8,9.7,30.62,N/A,-737280,0.0,0.0,70,0.00,,,0.00,Wunderground PWS Mod,2013-02-15 13:29:00,
2013-02-15 06:32:00,17.8,9.7,30.62,NE,54,0.0,0.0,70,0.00,,,0.00,Wunderground PWS Mod,2013-02-15 13:32:00,
2013-02-15 06:37:00,17.3,8.9,30.62,NE,54,0.0,1.0,69,0.00,,,0.00,Wunderground PWS Mod,2013-02-15 13:37:00,
2013-02-15 06:42:00,17.3,9.5,30.62,NE,54,0.0,0.0,71,0.00,,,0.00,Wunderground PWS Mod,2013-02-15 13:42:00,
2013-02-15 06:47:00,17.5,9.4,30.62,East,80,0.0,1.0,70,0.00,,,0.00,Wunderground PWS Mod,2013-02-15 13:47:00,
2013-02-15 06:52:00,17.2,9.4,30.62,ENE,76,1.0,2.0,71,0.00,,,0.00,Wunderground PWS Mod,2013-02-15 13:52:00,
2013-02-15 06:57:00,17.0,8.9,30.62,ENE,75,0.0,2.0,70,0.00,,,0.00,Wunderground PWS Mod,2013-02-15 13:57:00,
2013-02-15 07:02:00,16.7,8.6,30.63,ENE,75,0.0,1.0,70,0.00,,,0.00,Wunderground PWS Mod,2013-02-15 14:02:00,
2013-02-15 07:07:00,16.5,8.4,30.63,ENE,75,0.0,1.0,70,0.00,,,0.00,Wunderground PWS Mod,2013-02-15 14:07:00,
2013-02-15 07:12:00,16.5,9.0,30.63,SSW,204,0.0,1.0,72,0.00,,,0.00,Wunderground PWS Mod,2013-02-15 14:12:00,
2013-02-15 07:17:00,17.0,9.8,30.64,SW,226,0.0,1.0,73,0.00,,,0.00,Wunderground PWS Mod,2013-02-15 14:17:00,
2013-02-15 07:22:00,17.7,10.5,30.64,SW,231,0.0,0.0,73,0.00,,,0.00,Wunderground PWS Mod,2013-02-15 14:22:00,
2013-02-15 07:27:00,18.1,10.9,30.64,SW,231,0.0,0.0,73,0.00,,,0.00,Wunderground PWS Mod,2013-02-15 14:27:00,
2013-02-15 07:32:00,18.6,11.1,30.64,North,11,1.0,2.0,72,0.00,,,0.00,Wunderground PWS Mod,2013-02-15 14:32:00,
2013-02-15 07:37:00,19.5,11.9,30.64,NNE,20,3.0,5.0,72,0.00,,,0.00,Wunderground PWS Mod,2013-02-15 14:37:00,
2013-02-15 07:42:00,21.0,13.1,30.64,NNE,13,3.0,4.0,71,0.00,,,0.00,Wunderground PWS Mod,2013-02-15 14:42:00,
2013-02-15 07:47:00,22.2,13.6,30.60,North,9,4.0,5.0,69,0.00,,,0.00,Wunderground PWS Mod,2013-02-15 14:47:00,
2013-02-15 07:52:00,22.7,13.7,30.60,North,10,3.0,4.0,68,0.00,,,0.00,Wunderground PWS Mod,2013-02-15 14:52:00,
2013-02-15 07:57:00,23.2,13.9,30.60,NNE,18,3.0,4.0,67,0.00,,,0.00,Wunderground PWS Mod,2013-02-15 14:57:00,
2013-02-15 08:02:00,23.8,14.1,30.59,NNE,13,3.0,5.0,66,0.00,,,0.00,Wunderground PWS Mod,2013-02-15 15:02:00,
2013-02-15 08:07:00,24.4,14.7,30.59,North,11,4.0,5.0,66,0.00,,,0.00,Wunderground PWS Mod,2013-02-15 15:07:00,
2013-02-15 08:12:00,24.8,13.6,30.59,North,11,4.0,6.0,62,0.00,,,0.00,Wunderground PWS Mod,2013-02-15 15:12:00,
2013-02-15 08:17:00,25.3,14.8,30.61,North,10,5.0,6.0,64,0.00,,,0.00,Wunderground PWS Mod,2013-02-15 15:17:00,
2013-02-15 08:22:00,25.7,14.8,30.61,NNE,20,6.0,6.0,63,0.00,,,0.00,Wunderground PWS Mod,2013-02-15 15:22:00,
2013-02-15 08:27:00,26.0,14.8,30.61,NNE,24,4.0,7.0,62,0.00,,,0.00,Wunderground PWS Mod,2013-02-15 15:27:00,
2013-02-15 08:32:00,26.1,14.8,30.62,NNE,15,4.0,6.0,62,0.00,,,0.00,Wunderground PWS Mod,2013-02-15 15:32:00,
2013-02-15 08:37:00,26.6,14.9,30.62,NNE,20,4.0,6.0,61,0.00,,,0.00,Wunderground PWS Mod,2013-02-15 15:37:00,
2013-02-15 08:42:00,27.0,14.2,30.62,NE,40,4.0,8.0,58,0.00,,,0.00,Wunderground PWS Mod,2013-02-15 15:42:00,
2013-02-15 08:47:00,27.9,13.4,30.61,North,9,5.0,9.0,54,0.00,,,0.00,Wunderground PWS Mod,2013-02-15 15:47:00,
2013-02-15 08:52:00,28.5,13.5,30.61,NNE,20,6.0,9.0,53,0.00,,,0.00,Wunderground PWS Mod,2013-02-15 15:52:00,
2013-02-15 08:57:00,29.0,14.4,30.61,NNE,23,5.0,6.0,54,0.00,,,0.00,Wunderground PWS Mod,2013-02-15 15:57:00,
2013-02-15 09:02:00,29.1,14.9,30.61,NNE,15,5.0,9.0,55,0.00,,,0.00,Wunderground PWS Mod,2013-02-15 16:02:00,
2013-02-15 09:07:00,29.1,15.7,30.61,NNE,15,3.0,5.0,57,0.00,,,0.00,Wunderground PWS Mod,2013-02-15 16:07:00,
2013-02-15 09:12:00,29.3,16.3,30.61,North,354,1.0,4.0,58,0.00,,,0.00,Wunderground PWS Mod,2013-02-15 16:12:00,
2013-02-15 09:17:00,29.4,16.4,30.66,North,8,3.0,4.0,58,0.00,,,0.00,Wunderground PWS Mod,2013-02-15 16:17:00,
2013-02-15 09:22:00,29.4,16.0,30.66,North,357,3.0,5.0,57,0.00,,,0.00,Wunderground PWS Mod,2013-02-15 16:22:00,
2013-02-15 09:28:00,29.4,15.2,30.66,North,356,4.0,7.0,55,0.00,,,0.00,Wunderground PWS Mod,2013-02-15 16:28:00,
2013-02-15 09:33:00,29.3,15.1,30.66,NNW,346,5.0,7.0,55,0.00,,,0.00,Wunderground PWS Mod,2013-02-15 16:33:00,
2013-02-15 09:38:00,29.3,14.7,30.66,NNW,343,5.0,9.0,54,0.00,,,0.00,Wunderground PWS Mod,2013-02-15 16:38:00,
2013-02-15 09:43:00,29.7,15.1,30.66,North,349,4.0,6.0,54,0.00,,,0.00,Wunderground PWS Mod,2013-02-15 16:43:00,
2013-02-15 09:48:00,30.3,14.8,30.65,North,351,1.0,4.0,52,0.00,,,0.00,Wunderground PWS Mod,2013-02-15 16:48:00,
2013-02-15 09:53:00,30.7,15.6,30.65,North,0,2.0,4.0,53,0.00,,,0.00,Wunderground PWS Mod,2013-02-15 16:53:00,
2013-02-15 09:58:00,30.7,15.1,30.65,North,6,3.0,6.0,52,0.00,,,0.00,Wunderground PWS Mod,2013-02-15 16:58:00,
2013-02-15 10:03:00,31.0,15.4,30.66,NNW,339,4.0,4.0,52,0.00,,,0.00,Wunderground PWS Mod,2013-02-15 17:03:00,
2013-02-15 10:08:00,31.2,15.2,30.66,North,10,3.0,4.0,51,0.00,,,0.00,Wunderground PWS Mod,2013-02-15 17:08:00,
2013-02-15 10:13:00,31.5,15.4,30.66,NNE,22,4.0,8.0,51,0.00,,,0.00,Wunderground PWS Mod,2013-02-15 17:13:00,
2013-02-15 10:18:00,31.9,15.3,30.62,NNE,19,2.0,3.0,50,0.00,,,0.00,Wunderground PWS Mod,2013-02-15 17:18:00,
2013-02-15 10:23:00,32.2,13.7,30.62,NNE,21,3.0,6.0,46,0.00,,,0.00,Wunderground PWS Mod,2013-02-15 17:23:00,
2013-02-15 10:28:00,32.5,14.5,30.62,NNE,21,3.0,6.0,47,0.00,,,0.00,Wunderground PWS Mod,2013-02-15 17:28:00,
2013-02-15 10:34:00,33.1,16.0,30.61,North,354,4.0,4.0,49,0.00,,,0.00,Wunderground PWS Mod,2013-02-15 17:34:00,
2013-02-15 10:39:00,32.9,14.4,30.61,NNW,343,4.0,5.0,46,0.00,,,0.00,Wunderground PWS Mod,2013-02-15 17:39:00,
2013-02-15 10:44:00,32.7,13.2,30.61,North,11,3.0,7.0,44,0.00,,,0.00,Wunderground PWS Mod,2013-02-15 17:44:00,
2013-02-15 10:49:00,32.8,13.2,30.61,North,9,2.0,6.0,44,0.00,,,0.00,Wunderground PWS Mod,2013-02-15 17:49:00,
2013-02-15 10:55:00,32.9,13.3,30.61,North,1,4.0,4.0,44,0.00,,,0.00,Wunderground PWS Mod,2013-02-15 17:55:00,
2013-02-15 11:00:00,32.9,12.8,30.61,North,0,6.0,6.0,43,0.00,,,0.00,Wunderground PWS Mod,2013-02-15 18:00:00,
2013-02-15 11:05:00,32.9,14.4,30.61,North,9,3.0,5.0,46,0.00,,,0.00,Wunderground PWS Mod,2013-02-15 18:05:00,
2013-02-15 11:10:00,32.9,12.8,30.61,North,6,7.0,7.0,43,0.00,,,0.00,Wunderground PWS Mod,2013-02-15 18:10:00,
2013-02-15 11:15:00,33.1,14.5,30.61,NNE,14,6.0,7.0,46,0.00,,,0.00,Wunderground PWS Mod,2013-02-15 18:15:00,
2013-02-15 11:20:00,33.2,15.1,30.63,NNE,13,4.0,4.0,47,0.00,,,0.00,Wunderground PWS Mod,2013-02-15 18:20:00,
2013-02-15 11:25:00,33.4,14.3,30.63,North,11,3.0,4.0,45,0.00,,,0.00,Wunderground PWS Mod,2013-02-15 18:25:00,
2013-02-15 11:30:00,33.4,12.2,30.63,North,6,4.0,6.0,41,0.00,,,0.00,Wunderground PWS Mod,2013-02-15 18:30:00,
2013-02-15 11:35:00,33.4,12.2,30.63,North,11,5.0,6.0,41,0.00,,,0.00,Wunderground PWS Mod,2013-02-15 18:35:00,
2013-02-15 11:40:00,33.5,13.4,30.63,North,0,5.0,5.0,43,0.00,,,0.00,Wunderground PWS Mod,2013-02-15 18:40:00,
2013-02-15 11:45:00,33.5,12.8,30.63,NNE,13,5.0,5.0,42,0.00,,,0.00,Wunderground PWS Mod,2013-02-15 18:45:00,
2013-02-15 11:50:00,33.7,15.1,30.62,NNE,22,5.0,6.0,46,0.00,,,0.00,Wunderground PWS Mod,2013-02-15 18:50:00,
2013-02-15 11:55:00,33.8,12.6,30.62,North,0,4.0,6.0,41,0.00,,,0.00,Wunderground PWS Mod,2013-02-15 18:55:00,
2013-02-15 12:00:00,33.7,13.5,30.62,NNE,24,5.0,6.0,43,0.00,,,0.00,Wunderground PWS Mod,2013-02-15 19:00:00,
2013-02-15 12:05:00,33.7,12.5,30.61,NNE,21,5.0,6.0,41,0.00,,,0.00,Wunderground PWS Mod,2013-02-15 19:05:00,
2013-02-15 12:10:00,34.1,14.4,30.61,NE,37,5.0,7.0,44,0.00,,,0.00,Wunderground PWS Mod,2013-02-15 19:10:00,
2013-02-15 12:15:00,34.0,11.0,30.61,NNE,27,4.0,7.0,38,0.00,,,0.00,Wunderground PWS Mod,2013-02-15 19:15:00,
2013-02-15 12:20:00,34.1,13.4,30.62,North,8,3.0,5.0,42,0.00,,,0.00,Wunderground PWS Mod,2013-02-15 19:20:00,
2013-02-15 12:25:00,34.1,13.4,30.62,North,0,4.0,6.0,42,0.00,,,0.00,Wunderground PWS Mod,2013-02-15 19:25:00,
2013-02-15 12:30:00,34.6,12.1,30.62,NNE,17,5.0,10.0,39,0.00,,,0.00,Wunderground PWS Mod,2013-02-15 19:30:00,
2013-02-15 12:35:00,34.9,12.4,30.60,North,0,5.0,6.0,39,0.00,,,0.00,Wunderground PWS Mod,2013-02-15 19:35:00,
2013-02-15 12:40:00,34.4,12.0,30.60,NNE,29,11.0,12.0,39,0.00,,,0.00,Wunderground PWS Mod,2013-02-15 19:40:00,
2013-02-15 12:45:00,34.3,11.9,30.60,NNE,17,4.0,6.0,39,0.00,,,0.00,Wunderground PWS Mod,2013-02-15 19:45:00,
2013-02-15 12:50:00,34.4,16.2,30.61,North,1,4.0,5.0,47,0.00,,,0.00,Wunderground PWS Mod,2013-02-15 19:50:00,
2013-02-15 12:55:00,34.3,13.6,30.61,NNW,343,4.0,4.0,42,0.00,,,0.00,Wunderground PWS Mod,2013-02-15 19:55:00,
2013-02-15 13:00:00,34.6,13.8,30.61,North,3,5.0,5.0,42,0.00,,,0.00,Wunderground PWS Mod,2013-02-15 20:00:00,
2013-02-15 13:05:00,34.6,14.4,30.59,North,7,5.0,7.0,43,0.00,,,0.00,Wunderground PWS Mod,2013-02-15 20:05:00,
2013-02-15 13:10:00,34.7,14.5,30.59,North,2,3.0,4.0,43,0.00,,,0.00,Wunderground PWS Mod,2013-02-15 20:10:00,
2013-02-15 13:15:00,34.4,15.2,30.59,North,11,5.0,5.0,45,0.00,,,0.00,Wunderground PWS Mod,2013-02-15 20:15:00,
2013-02-15 13:20:00,34.6,13.8,30.63,NNE,20,5.0,5.0,42,0.00,,,0.00,Wunderground PWS Mod,2013-02-15 20:20:00,
2013-02-15 13:25:00,34.4,14.7,30.63,NNE,30,5.0,5.0,44,0.00,,,0.00,Wunderground PWS Mod,2013-02-15 20:25:00,
2013-02-15 13:30:00,34.3,15.1,30.63,NNE,17,4.0,5.0,45,0.00,,,0.00,Wunderground PWS Mod,2013-02-15 20:30:00,
2013-02-15 13:35:00,34.3,15.1,30.62,North,6,5.0,7.0,45,0.00,,,0.00,Wunderground PWS Mod,2013-02-15 20:35:00,
2013-02-15 13:40:00,34.4,14.7,30.62,North,1,3.0,5.0,44,0.00,,,0.00,Wunderground PWS Mod,2013-02-15 20:40:00,
2013-02-15 13:45:00,34.7,14.5,30.62,NNE,15,4.0,6.0,43,0.00,,,0.00,Wunderground PWS Mod,2013-02-15 20:45:00,
2013-02-15 13:50:00,34.9,15.2,30.60,North,0,5.0,5.0,44,0.00,,,0.00,Wunderground PWS Mod,2013-02-15 20:50:00,
2013-02-15 13:55:00,34.7,14.5,30.60,North,0,3.0,4.0,43,0.00,,,0.00,Wunderground PWS Mod,2013-02-15 20:55:00,
2013-02-15 14:00:00,34.9,15.7,30.60,NNE,25,3.0,5.0,45,0.00,,,0.00,Wunderground PWS Mod,2013-02-15 21:00:00,
2013-02-15 14:05:00,35.3,15.0,30.59,NNW,338,4.0,6.0,43,0.00,,,0.00,Wunderground PWS Mod,2013-02-15 21:05:00,
2013-02-15 14:10:00,35.2,14.9,30.59,NNE,27,3.0,4.0,43,0.00,,,0.00,Wunderground PWS Mod,2013-02-15 21:10:00,
2013-02-15 14:15:00,35.2,16.0,30.59,North,11,3.0,4.0,45,0.00,,,0.00,Wunderground PWS Mod,2013-02-15 21:15:00,
2013-02-15 14:20:00,35.3,13.9,30.59,North,355,3.0,4.0,41,0.00,,,0.00,Wunderground PWS Mod,2013-02-15 21:20:00,
2013-02-15 14:25:00,35.5,14.1,30.59,North,351,2.0,4.0,41,0.00,,,0.00,Wunderground PWS Mod,2013-02-15 21:25:00,
2013-02-15 14:30:00,35.5,13.0,30.59,North,356,3.0,4.0,39,0.00,,,0.00,Wunderground PWS Mod,2013-02-15 21:30:00,
2013-02-15 14:35:00,35.6,14.2,30.57,North,357,3.0,4.0,41,0.00,,,0.00,Wunderground PWS Mod,2013-02-15 21:35:00,
2013-02-15 14:40:00,35.8,13.2,30.57,NNW,348,4.0,4.0,39,0.00,,,0.00,Wunderground PWS Mod,2013-02-15 21:40:00,
2013-02-15 14:45:00,36.2,14.2,30.57,North,0,2.0,4.0,40,0.00,,,0.00,Wunderground PWS Mod,2013-02-15 21:45:00,
2013-02-15 14:50:00,35.9,12.7,30.58,North,3,2.0,3.0,38,0.00,,,0.00,Wunderground PWS Mod,2013-02-15 21:50:00,
2013-02-15 14:55:00,35.9,13.9,30.58,NNW,341,4.0,4.0,40,0.00,,,0.00,Wunderground PWS Mod,2013-02-15 21:55:00,
2013-02-15 15:00:00,36.0,15.1,30.58,NNW,346,3.0,4.0,42,0.00,,,0.00,Wunderground PWS Mod,2013-02-15 22:00:00,
2013-02-15 15:05:00,36.2,11.1,30.59,North,0,2.0,6.0,35,0.00,,,0.00,Wunderground PWS Mod,2013-02-15 22:05:00,
2013-02-15 15:10:00,36.2,11.8,30.59,NNW,343,3.0,5.0,36,0.00,,,0.00,Wunderground PWS Mod,2013-02-15 22:10:00,
2013-02-15 15:15:00,36.3,12.5,30.59,NNW,342,2.0,4.0,37,0.00,,,0.00,Wunderground PWS Mod,2013-02-15 22:15:00,
2013-02-15 15:20:00,36.5,13.3,30.58,North,358,2.0,3.0,38,0.00,,,0.00,Wunderground PWS Mod,2013-02-15 22:20:00,
2013-02-15 15:25:00,36.6,13.4,30.58,North,10,3.0,3.0,38,0.00,,,0.00,Wunderground PWS Mod,2013-02-15 22:25:00,
2013-02-15 15:30:00,36.5,12.7,30.58,North,11,2.0,3.0,37,0.00,,,0.00,Wunderground PWS Mod,2013-02-15 22:30:00,
2013-02-15 15:35:00,36.5,12.0,30.58,North,350,2.0,3.0,36,0.00,,,0.00,Wunderground PWS Mod,2013-02-15 22:35:00,
2013-02-15 15:40:00,36.8,9.7,30.58,North,358,4.0,8.0,32,0.00,,,0.00,Wunderground PWS Mod,2013-02-15 22:40:00,
2013-02-15 15:44:00,37.0,12.5,30.58,North,0,4.0,7.0,36,0.00,,,0.00,Wunderground PWS Mod,2013-02-15 22:44:00,
2013-02-15 15:45:00,37.0,10.5,30.58,North,358,4.0,7.0,33,0.00,,,0.00,Wunderground PWS Mod,2013-02-15 22:45:00,
2013-02-15 15:50:00,36.6,13.9,30.59,North,0,2.0,4.0,39,0.00,,,0.00,Wunderground PWS Mod,2013-02-15 22:50:00,
2013-02-15 15:56:00,36.0,13.4,30.59,NNE,20,3.0,3.0,39,0.00,,,0.00,Wunderground PWS Mod,2013-02-15 22:56:00,
2013-02-15 16:01:00,36.0,12.8,30.59,North,5,2.0,3.0,38,0.00,,,0.00,Wunderground PWS Mod,2013-02-15 23:01:00,
2013-02-15 16:06:00,36.2,14.2,30.59,North,4,2.0,2.0,40,0.00,,,0.00,Wunderground PWS Mod,2013-02-15 23:06:00,
2013-02-15 16:11:00,35.8,12.0,30.59,North,11,4.0,7.0,37,0.00,,,0.00,Wunderground PWS Mod,2013-02-15 23:11:00,
2013-02-15 16:16:00,35.6,12.5,30.59,NNE,13,4.0,5.0,38,0.00,,,0.00,Wunderground PWS Mod,2013-02-15 23:16:00,
2013-02-15 16:21:00,35.5,13.5,30.61,NNE,18,2.0,4.0,40,0.00,,,0.00,Wunderground PWS Mod,2013-02-15 23:21:00,
2013-02-15 16:26:00,35.5,14.1,30.61,North,358,1.0,2.0,41,0.00,,,0.00,Wunderground PWS Mod,2013-02-15 23:26:00,
2013-02-15 16:31:00,35.9,10.2,30.61,NNW,339,5.0,7.0,34,0.00,,,0.00,Wunderground PWS Mod,2013-02-15 23:31:00,
2013-02-15 16:36:00,36.2,13.6,30.60,NNE,14,2.0,3.0,39,0.00,,,0.00,Wunderground PWS Mod,2013-02-15 23:36:00,
2013-02-15 16:41:00,35.8,12.0,30.60,NNW,345,3.0,5.0,37,0.00,,,0.00,Wunderground PWS Mod,2013-02-15 23:41:00,
2013-02-15 16:46:00,35.9,11.5,30.60,NNW,335,6.0,6.0,36,0.00,,,0.00,Wunderground PWS Mod,2013-02-15 23:46:00,
2013-02-15 16:51:00,36.0,11.0,30.61,North,349,4.0,5.0,35,0.00,,,0.00,Wunderground PWS Mod,2013-02-15 23:51:00,
2013-02-15 16:56:00,36.0,11.0,30.61,NNW,345,3.0,6.0,35,0.00,,,0.00,Wunderground PWS Mod,2013-02-15 23:56:00,
2013-02-15 17:01:00,35.9,10.9,30.61,NNW,337,5.0,6.0,35,0.00,,,0.00,Wunderground PWS Mod,2013-02-16 00:01:00,
2013-02-15 17:06:00,35.6,10.6,30.60,NNW,342,2.0,6.0,35,0.00,,,0.00,Wunderground PWS Mod,2013-02-16 00:06:00,
2013-02-15 17:11:00,35.5,10.5,30.60,NNW,344,5.0,6.0,35,0.00,,,0.00,Wunderground PWS Mod,2013-02-16 00:11:00,
2013-02-15 17:16:00,35.2,11.5,30.60,NNW,340,2.0,4.0,37,0.00,,,0.00,Wunderground PWS Mod,2013-02-16 00:16:00,
2013-02-15 17:21:00,34.1,11.7,30.60,North,0,2.0,3.0,39,0.00,,,0.00,Wunderground PWS Mod,2013-02-16 00:21:00,
2013-02-15 17:26:00,33.5,11.7,30.60,North,4,2.0,2.0,40,0.00,,,0.00,Wunderground PWS Mod,2013-02-16 00:26:00,
2013-02-15 17:31:00,32.7,12.1,30.61,North,9,3.0,3.0,42,0.00,,,0.00,Wunderground PWS Mod,2013-02-16 00:31:00,
2013-02-15 17:36:00,31.8,11.8,30.61,North,10,3.0,4.0,43,0.00,,,0.00,Wunderground PWS Mod,2013-02-16 00:36:00,
2013-02-15 17:41:00,31.3,11.9,30.61,North,11,3.0,3.0,44,0.00,,,0.00,Wunderground PWS Mod,2013-02-16 00:41:00,
2013-02-15 17:46:00,31.0,11.6,30.63,North,11,2.0,3.0,44,0.00,,,0.00,Wunderground PWS Mod,2013-02-16 00:46:00,
2013-02-15 17:51:00,30.4,11.6,30.63,North,11,2.0,2.0,45,0.00,,,0.00,Wunderground PWS Mod,2013-02-16 00:51:00,
2013-02-15 17:56:00,30.1,11.3,30.63,North,11,1.0,2.0,45,0.00,,,0.00,Wunderground PWS Mod,2013-02-16 00:56:00,
2013-02-15 18:01:00,30.0,10.7,30.63,North,0,2.0,2.0,44,0.00,,,0.00,Wunderground PWS Mod,2013-02-16 01:01:00,
2013-02-15 18:06:00,29.4,10.6,30.63,North,0,1.0,2.0,45,0.00,,,0.00,Wunderground PWS Mod,2013-02-16 01:06:00,
2013-02-15 18:11:00,29.0,10.8,30.63,NNE,31,2.0,2.0,46,0.00,,,0.00,Wunderground PWS Mod,2013-02-16 01:11:00,
2013-02-15 18:16:00,29.0,10.3,30.66,NNE,25,1.0,2.0,45,0.00,,,0.00,Wunderground PWS Mod,2013-02-16 01:16:00,
2013-02-15 18:21:00,29.0,10.3,30.66,NNE,25,0.0,1.0,45,0.00,,,0.00,Wunderground PWS Mod,2013-02-16 01:21:00,
2013-02-15 18:26:00,28.8,10.6,30.66,NNE,25,0.0,0.0,46,0.00,,,0.00,Wunderground PWS Mod,2013-02-16 01:26:00,
2013-02-15 18:31:00,28.2,11.5,30.66,NNE,25,0.0,0.0,49,0.00,,,0.00,Wunderground PWS Mod,2013-02-16 01:31:00,
2013-02-15 18:36:00,27.6,10.0,30.69,NNE,25,0.0,0.0,47,0.00,,,0.00,Wunderground PWS Mod,2013-02-16 01:36:00,
2013-02-15 18:41:00,27.2,10.5,30.69,NNE,25,0.0,1.0,49,0.00,,,0.00,Wunderground PWS Mod,2013-02-16 01:41:00,
2013-02-15 18:46:00,26.7,10.1,30.69,NNE,25,1.0,1.0,49,0.00,,,0.00,Wunderground PWS Mod,2013-02-16 01:46:00,
2013-02-15 18:51:00,25.8,9.7,30.70,NE,40,0.0,2.0,50,0.00,,,0.00,Wunderground PWS Mod,2013-02-16 01:51:00,
2013-02-15 18:56:00,25.0,9.8,30.70,NE,40,0.0,1.0,52,0.00,,,0.00,Wunderground PWS Mod,2013-02-16 01:56:00,
2013-02-15 19:01:00,25.3,10.1,30.72,NE,40,1.0,1.0,52,0.00,,,0.00,Wunderground PWS Mod,2013-02-16 02:01:00,
2013-02-15 19:06:00,25.6,10.0,30.72,NE,40,1.0,1.0,51,0.00,,,0.00,Wunderground PWS Mod,2013-02-16 02:06:00,
2013-02-15 19:11:00,25.4,10.2,30.72,NE,34,2.0,3.0,52,0.00,,,0.00,Wunderground PWS Mod,2013-02-16 02:11:00,
2013-02-15 19:16:00,25.1,9.9,30.67,NNE,28,3.0,3.0,52,0.00,,,0.00,Wunderground PWS Mod,2013-02-16 02:16:00,
2013-02-15 19:21:00,24.8,10.1,30.67,NE,39,3.0,4.0,53,0.00,,,0.00,Wunderground PWS Mod,2013-02-16 02:21:00,
2013-02-15 19:26:00,24.4,9.7,30.67,NE,39,3.0,4.0,53,0.00,,,0.00,Wunderground PWS Mod,2013-02-16 02:26:00,
2013-02-15 19:31:00,23.9,9.2,30.67,NE,34,2.0,3.0,53,0.00,,,0.00,Wunderground PWS Mod,2013-02-16 02:31:00,
2013-02-15 19:36:00,23.5,9.3,30.67,NNE,26,2.0,2.0,54,0.00,,,0.00,Wunderground PWS Mod,2013-02-16 02:36:00,
2013-02-15 19:41:00,23.2,9.0,30.67,NE,34,3.0,3.0,54,0.00,,,0.00,Wunderground PWS Mod,2013-02-16 02:41:00,
2013-02-15 19:46:00,22.7,8.9,30.68,NNE,30,3.0,3.0,55,0.00,,,0.00,Wunderground PWS Mod,2013-02-16 02:46:00,
2013-02-15 19:51:00,22.4,8.2,30.68,NNE,30,1.0,3.0,54,0.00,,,0.00,Wunderground PWS Mod,2013-02-16 02:51:00,
2013-02-15 19:56:00,22.1,8.4,30.68,NNE,28,3.0,3.0,55,0.00,,,0.00,Wunderground PWS Mod,2013-02-16 02:56:00,
2013-02-15 20:01:00,21.9,8.6,30.69,NNE,32,3.0,3.0,56,0.00,,,0.00,Wunderground PWS Mod,2013-02-16 03:01:00,
2013-02-15 20:06:00,21.9,8.6,30.69,NE,34,2.0,3.0,56,0.00,,,0.00,Wunderground PWS Mod,2013-02-16 03:06:00,
2013-02-15 20:11:00,22.2,9.3,30.69,NNE,29,4.0,4.0,57,0.00,,,0.00,Wunderground PWS Mod,2013-02-16 03:11:00,
2013-02-15 20:16:00,22.9,9.1,30.64,NNE,27,3.0,3.0,55,0.00,,,0.00,Wunderground PWS Mod,2013-02-16 03:16:00,
2013-02-15 20:21:00,23.3,9.1,30.64,NNE,32,2.0,3.0,54,0.00,,,0.00,Wunderground PWS Mod,2013-02-16 03:21:00,
2013-02-15 20:26:00,23.3,8.7,30.64,NNE,32,1.0,3.0,53,0.00,,,0.00,Wunderground PWS Mod,2013-02-16 03:26:00,
2013-02-15 20:31:00,23.0,8.0,30.65,NNE,32,3.0,3.0,52,0.00,,,0.00,Wunderground PWS Mod,2013-02-16 03:31:00,
2013-02-15 20:36:00,22.5,8.7,30.65,NE,36,2.0,3.0,55,0.00,,,0.00,Wunderground PWS Mod,2013-02-16 03:36:00,
2013-02-15 20:41:00,22.1,8.8,30.65,NNE,28,2.0,4.0,56,0.00,,,0.00,Wunderground PWS Mod,2013-02-16 03:41:00,
2013-02-15 20:46:00,21.9,9.0,30.67,NE,45,3.0,3.0,57,0.00,,,0.00,Wunderground PWS Mod,2013-02-16 03:46:00,
2013-02-15 20:51:00,21.9,9.0,30.67,NE,36,1.0,4.0,57,0.00,,,0.00,Wunderground PWS Mod,2013-02-16 03:51:00,
2013-02-15 20:56:00,22.2,9.7,30.67,NNE,32,3.0,4.0,58,0.00,,,0.00,Wunderground PWS Mod,2013-02-16 03:56:00,
2013-02-15 21:01:00,22.9,9.9,30.65,NE,46,3.0,4.0,57,0.00,,,0.00,Wunderground PWS Mod,2013-02-16 04:01:00,
2013-02-15 21:06:00,23.2,10.2,30.65,NNE,32,4.0,4.0,57,0.00,,,0.00,Wunderground PWS Mod,2013-02-16 04:06:00,
2013-02-15 21:11:00,23.3,10.3,30.65,NNE,33,4.0,4.0,57,0.00,,,0.00,Wunderground PWS Mod,2013-02-16 04:11:00,
2013-02-15 21:16:00,23.5,10.1,30.64,NE,38,4.0,4.0,56,0.00,,,0.00,Wunderground PWS Mod,2013-02-16 04:16:00,
2013-02-15 21:21:00,22.9,9.9,30.64,NE,37,3.0,5.0,57,0.00,,,0.00,Wunderground PWS Mod,2013-02-16 04:21:00,
2013-02-15 21:26:00,22.9,9.9,30.64,NE,38,3.0,4.0,57,0.00,,,0.00,Wunderground PWS Mod,2013-02-16 04:26:00,
2013-02-15 21:31:00,22.9,10.3,30.64,NE,37,3.0,3.0,58,0.00,,,0.00,Wunderground PWS Mod,2013-02-16 04:31:00,
2013-02-15 21:36:00,22.9,10.3,30.64,NE,36,2.0,3.0,58,0.00,,,0.00,Wunderground PWS Mod,2013-02-16 04:36:00,
2013-02-15 21:41:00,22.2,9.7,30.64,NE,34,3.0,4.0,58,0.00,,,0.00,Wunderground PWS Mod,2013-02-16 04:41:00,
2013-02-15 21:46:00,21.3,9.2,30.66,NE,42,3.0,4.0,59,0.00,,,0.00,Wunderground PWS Mod,2013-02-16 04:46:00,
2013-02-15 21:51:00,21.0,9.6,30.66,NNE,28,2.0,5.0,61,0.00,,,0.00,Wunderground PWS Mod,2013-02-16 04:51:00,
2013-02-15 21:56:00,21.3,10.3,30.66,NE,50,4.0,4.0,62,0.00,,,0.00,Wunderground PWS Mod,2013-02-16 04:56:00,
2013-02-15 22:00:00,21.9,10.9,30.66,NE,41,2.0,3.0,62,0.00,,,0.00,Wunderground PWS Mod,2013-02-16 05:00:00,
2013-02-15 22:05:00,22.4,11.0,30.66,NNE,20,3.0,5.0,61,0.00,,,0.00,Wunderground PWS Mod,2013-02-16 05:05:00,
2013-02-15 22:10:00,22.9,11.1,30.66,NE,49,2.0,4.0,60,0.00,,,0.00,Wunderground PWS Mod,2013-02-16 05:10:00,
2013-02-15 22:15:00,23.3,11.1,30.66,NE,47,3.0,7.0,59,0.00,,,0.00,Wunderground PWS Mod,2013-02-16 05:15:00,
2013-02-15 22:20:00,23.6,11.0,30.62,NNE,27,3.0,4.0,58,0.00,,,0.00,Wunderground PWS Mod,2013-02-16 05:20:00,
2013-02-15 22:23:00,23.8,11.2,30.62,NE,34,4.0,6.0,58,0.00,,,0.00,Wunderground PWS Mod,2013-02-16 05:23:00,
2013-02-15 22:28:00,23.9,10.9,30.62,NE,48,3.0,7.0,57,0.00,,,0.00,Wunderground PWS Mod,2013-02-16 05:28:00,
2013-02-15 22:33:00,24.2,10.7,30.62,NNE,23,3.0,4.0,56,0.00,,,0.00,Wunderground PWS Mod,2013-02-16 05:33:00,
2013-02-15 22:38:00,24.2,10.7,30.62,NE,34,3.0,4.0,56,0.00,,,0.00,Wunderground PWS Mod,2013-02-16 05:38:00,
2013-02-15 22:44:00,24.5,10.6,30.62,NNE,21,4.0,5.0,55,0.00,,,0.00,Wunderground PWS Mod,2013-02-16 05:44:00,
2013-02-15 22:50:00,25.3,10.5,30.61,NE,51,3.0,4.0,53,0.00,,,0.00,Wunderground PWS Mod,2013-02-16 05:50:00,
2013-02-15 22:55:00,25.8,10.1,30.61,ENE,58,5.0,5.0,51,0.00,,,0.00,Wunderground PWS Mod,2013-02-16 05:55:00,
2013-02-15 23:00:00,26.3,10.6,30.61,NNE,30,4.0,5.0,51,0.00,,,0.00,Wunderground PWS Mod,2013-02-16 06:00:00,
2013-02-15 23:05:00,26.4,10.3,30.60,NE,45,5.0,5.0,50,0.00,,,0.00,Wunderground PWS Mod,2013-02-16 06:05:00,
2013-02-15 23:10:00,26.0,9.9,30.60,NE,49,4.0,5.0,50,0.00,,,0.00,Wunderground PWS Mod,2013-02-16 06:10:00,
2013-02-15 23:15:00,25.3,9.7,30.60,ENE,68,2.0,5.0,51,0.00,,,0.00,Wunderground PWS Mod,2013-02-16 06:15:00,
2013-02-15 23:20:00,25.0,9.8,30.61,NNE,29,4.0,4.0,52,0.00,,,0.00,Wunderground PWS Mod,2013-02-16 06:20:00,
2013-02-15 23:25:00,25.1,9.9,30.61,ENE,58,5.0,5.0,52,0.00,,,0.00,Wunderground PWS Mod,2013-02-16 06:25:00,
2013-02-15 23:30:00,25.3,10.1,30.61,NNE,25,4.0,6.0,52,0.00,,,0.00,Wunderground PWS Mod,2013-02-16 06:30:00,
2013-02-15 23:35:00,25.7,10.0,30.61,ENE,68,4.0,4.0,51,0.00,,,0.00,Wunderground PWS Mod,2013-02-16 06:35:00,
2013-02-15 23:40:00,26.0,9.9,30.61,NE,34,3.0,6.0,50,0.00,,,0.00,Wunderground PWS Mod,2013-02-16 06:40:00,
2013-02-15 23:45:00,26.4,9.3,30.61,NE,34,3.0,4.0,48,0.00,,,0.00,Wunderground PWS Mod,2013-02-16 06:45:00,
2013-02-15 23:50:00,26.3,9.2,30.59,NE,35,1.0,4.0,48,0.00,,,0.00,Wunderground PWS Mod,2013-02-16 06:50:00,
2013-02-15 23:55:00,25.3,8.3,30.59,NNW,338,3.0,4.0,48,0.00,,,0.00,Wunderground PWS Mod,2013-02-16 06:55:00,